Time;durP1;ratioP1;P1;durP2;ratioP2;P2;SDS_P1;SDS_P2;PMS_P1;PMS_P2;Temp;Humidity;BMP_temperature;BMP_pressure;BME280_temperature;BME280_humidity;BME280_pressure;Samples;Min_cycle;Max_cycle;Signal;HPM_P1;HPM_P2
2021/08/27 00:00:08;;;;;;;22.38;14.40;;;;;;;17.85;100.00;99704.81;5042151;28;20049;-49
2021/08/27 00:02:34;;;;;;;22.00;14.82;;;;;;;17.85;100.00;99717.13;5035236;28;20040;-50
2021/08/27 00:05:01;;;;;;;20.88;14.93;;;;;;;17.76;100.00;99708.88;5031288;28;20041;-49
2021/08/27 00:07:26;;;;;;;19.02;14.48;;;;;;;17.75;100.00;99707.19;5030837;28;20041;-47
2021/08/27 00:09:52;;;;;;;24.90;15.20;;;;;;;17.84;100.00;99723.34;5029260;28;20151;-48
2021/08/27 00:12:18;;;;;;;20.23;15.48;;;;;;;17.83;100.00;99726.91;5030573;28;20053;-51
2021/08/27 00:14:44;;;;;;;25.23;16.77;;;;;;;17.82;100.00;99728.69;5031704;28;20088;-51
2021/08/27 00:17:12;;;;;;;20.42;13.65;;;;;;;17.82;100.00;99727.84;5031337;28;20149;-51
2021/08/27 00:19:38;;;;;;;22.30;14.30;;;;;;;17.73;100.00;99722.22;5030974;28;20509;-51
2021/08/27 00:22:03;;;;;;;21.42;14.95;;;;;;;17.72;100.00;99722.31;5030031;28;20052;-49
2021/08/27 00:24:29;;;;;;;20.08;14.25;;;;;;;17.78;100.00;99733.31;5040138;28;20115;-49
2021/08/27 00:26:55;;;;;;;20.80;14.10;;;;;;;17.72;100.00;99717.06;5030554;28;20045;-49
2021/08/27 00:29:20;;;;;;;21.95;14.63;;;;;;;17.78;100.00;99732.47;5030932;28;20041;-51
2021/08/27 00:31:46;;;;;;;22.88;14.85;;;;;;;17.77;100.00;99725.50;5034763;28;20099;-49
2021/08/27 00:34:12;;;;;;;21.92;14.20;;;;;;;17.75;100.00;99730.00;5036372;28;20059;-52
2021/08/27 00:36:37;;;;;;;21.30;14.35;;;;;;;17.74;100.00;99720.44;5035263;28;20041;-49
2021/08/27 00:39:03;;;;;;;20.15;14.82;;;;;;;17.74;100.00;99723.09;5030489;28;20095;-51
2021/08/27 00:41:29;;;;;;;21.98;15.27;;;;;;;17.73;100.00;99722.22;5029005;28;20491;-52
2021/08/27 00:43:55;;;;;;;21.65;14.25;;;;;;;17.71;100.00;99725.88;5030748;28;20045;-52
2021/08/27 00:46:21;;;;;;;24.92;15.00;;;;;;;17.69;100.00;99733.84;5050844;28;20584;-52
2021/08/27 00:48:46;;;;;;;22.90;14.52;;;;;;;17.70;100.00;99724.19;5046289;28;20044;-50
2021/08/27 00:51:12;;;;;;;20.55;14.20;;;;;;;17.63;100.00;99718.50;5036441;28;20437;-50
2021/08/27 00:53:38;;;;;;;19.73;13.93;;;;;;;17.70;100.00;99730.28;5034816;28;20501;-52
2021/08/27 00:56:05;;;;;;;23.42;14.93;;;;;;;17.67;100.00;99732.28;5037863;28;20456;-52
2021/08/27 00:58:30;;;;;;;23.90;14.75;;;;;;;17.66;100.00;99730.59;5030782;28;20037;-50
2021/08/27 01:00:57;;;;;;;20.08;14.20;;;;;;;17.66;100.00;99725.34;5045683;28;20075;-49
2021/08/27 01:03:23;;;;;;;24.00;14.63;;;;;;;17.65;100.00;99726.25;5029658;28;20132;-51
2021/08/27 01:06:18;;;;;;;26.38;15.43;;;;;;;17.65;100.00;99723.63;5031714;28;20128;-52
2021/08/27 01:08:57;;;;;;;19.92;14.65;;;;;;;17.58;100.00;99715.28;5029659;28;20045;-52
2021/08/27 01:11:29;;;;;;;21.90;14.70;;;;;;;17.64;100.00;99724.56;5027555;28;20163;-51
2021/08/27 01:13:59;;;;;;;20.98;14.80;;;;;;;17.63;100.00;99723.75;5032958;28;20513;-53
2021/08/27 01:16:29;;;;;;;20.80;13.90;;;;;;;17.60;100.00;99720.44;5029123;28;20065;-48
2021/08/27 01:19:35;;;;;;;24.50;14.88;;;;;;;17.62;100.00;99731.72;5026240;28;20037;-52
2021/08/27 01:22:19;;;;;;;22.00;14.85;;;;;;;17.62;100.00;99736.97;5045584;28;20055;-52
2021/08/27 01:24:47;;;;;;;24.13;14.35;;;;;;;17.61;100.00;99733.50;5029931;28;20493;-51
2021/08/27 01:27:16;;;;;;;20.35;14.35;;;;;;;17.61;100.00;99730.03;5030137;28;20128;-52
2021/08/27 01:29:44;;;;;;;24.25;15.82;;;;;;;17.60;100.00;99723.06;5042589;28;20597;-52
2021/08/27 01:32:16;;;;;;;24.70;14.25;;;;;;;17.52;100.00;99720.06;5034767;28;20045;-51
2021/08/27 01:34:44;;;;;;;21.30;14.32;;;;;;;17.61;100.00;99727.41;5047845;28;20115;-51
2021/08/27 01:37:13;;;;;;;19.92;13.25;;;;;;;17.60;100.00;99733.59;5042497;28;20044;-51
2021/08/27 01:39:40;;;;;;;;;;;;;;;17.59;100.00;99726.59;5044148;28;20068;-51
2021/08/27 01:42:08;;;;;;;22.00;14.43;;;;;;;17.56;100.00;99727.66;5030797;28;20015;-47
2021/08/27 01:44:34;;;;;;;19.70;14.50;;;;;;;17.56;100.00;99727.66;5040984;28;20084;-51
2021/08/27 01:47:01;;;;;;;22.25;14.15;;;;;;;17.55;100.00;99731.22;5012026;28;20505;-51
2021/08/27 01:49:30;;;;;;;21.02;14.80;;;;;;;17.46;100.00;99715.19;5031598;28;20049;-50
2021/08/27 01:52:03;;;;;;;;;;;;;;;17.57;100.00;99731.13;5029467;28;20065;-50
2021/08/27 01:54:30;;;;;;;19.77;13.55;;;;;;;17.56;100.00;99732.06;5036904;28;20428;-51
2021/08/27 01:56:57;;;;;;;23.63;15.57;;;;;;;17.57;100.00;99741.66;5027896;28;20045;-48
2021/08/27 01:59:33;;;;;;;20.52;14.10;;;;;;;17.55;100.00;99735.63;5028122;28;20259;-50
2021/08/27 02:02:00;;;;;;;22.30;15.50;;;;;;;17.55;100.00;99740.88;5028698;28;20037;-49
2021/08/27 02:04:26;;;;;;;21.10;14.45;;;;;;;17.56;100.00;99734.69;5029409;28;20046;-48
2021/08/27 02:06:52;;;;;;;22.42;13.93;;;;;;;17.54;100.00;99742.66;5027379;28;20068;-52
2021/08/27 02:09:18;;;;;;;21.50;15.25;;;;;;;17.53;100.00;99735.75;5028297;28;20513;-53
2021/08/27 02:11:45;;;;;;;22.52;14.80;;;;;;;17.51;100.00;99734.16;5033207;28;20065;-48
2021/08/27 02:14:11;;;;;;;23.45;14.60;;;;;;;17.49;100.00;99741.25;5033309;28;20037;-53
2021/08/27 02:16:37;;;;;;;24.20;15.63;;;;;;;17.49;100.00;99736.84;5029306;28;20092;-54
2021/08/27 02:19:04;;;;;;;24.40;14.93;;;;;;;17.51;100.00;99744.66;5029039;28;20508;-50
2021/08/27 02:21:32;;;;;;;23.15;14.07;;;;;;;17.50;100.00;99740.34;5029496;28;20045;-51
2021/08/27 02:23:59;;;;;;;22.92;15.70;;;;;;;17.49;100.00;99742.13;5031796;28;20037;-47
2021/08/27 02:26:25;;;;;;;21.15;15.13;;;;;;;17.50;100.00;99741.19;5031137;28;20175;-50
2021/08/27 02:28:51;;;;;;;27.23;16.40;;;;;;;17.49;100.00;99742.13;5041488;28;20041;-48
2021/08/27 02:31:17;;;;;;;23.48;15.05;;;;;;;17.48;100.00;99737.78;5032337;28;20102;-51
2021/08/27 02:33:45;;;;;;;22.40;15.80;;;;;;;17.46;100.00;99736.22;5032386;28;20493;-52
2021/08/27 02:36:13;;;;;;;24.30;15.65;;;;;;;17.46;100.00;99738.84;5032851;28;20049;-49
2021/08/27 02:38:39;;;;;;;20.15;15.50;;;;;;;17.45;100.00;99735.38;5030256;28;20044;-51
2021/08/27 02:41:05;;;;;;;23.88;15.60;;;;;;;17.45;100.00;99745.03;5037584;28;20191;-49
2021/08/27 02:43:31;;;;;;;25.60;16.65;;;;;;;17.42;100.00;99746.09;5040241;28;20572;-51
2021/08/27 02:45:56;;;;;;;23.90;16.55;;;;;;;17.44;100.00;99753.84;5052928;28;20055;-50
2021/08/27 02:48:22;;;;;;;28.02;16.40;;;;;;;17.44;100.00;99745.97;5049021;28;20563;-51
2021/08/27 02:51:02;;;;;;;25.30;15.93;;;;;;;17.45;100.00;99750.28;5031173;28;20506;-47
2021/08/27 02:53:30;;;;;;;26.40;16.48;;;;;;;17.45;100.00;99760.81;5031284;28;20041;-50
2021/08/27 02:56:02;;;;;;;23.87;16.17;;;;;;;17.46;100.00;99758.09;5031265;28;20037;-50
2021/08/27 02:58:31;;;;;;;23.50;16.63;;;;;;;17.33;100.00;99739.59;5046839;28;20295;-48
2021/08/27 03:01:17;;;;;;;27.45;17.05;;;;;;;17.39;100.00;99746.25;5030838;28;20132;-49
2021/08/27 03:04:21;;;;;;;31.75;17.55;;;;;;;17.48;100.00;99768.53;5032768;28;20527;-48
2021/08/27 03:06:50;;;;;;;28.25;17.65;;;;;;;17.48;100.00;99765.88;5019112;28;20646;-52
2021/08/27 03:09:17;;;;;;;24.00;16.48;;;;;;;17.48;100.00;99773.78;5028089;28;20045;-51
2021/08/27 03:12:01;;;;;;;26.98;17.17;;;;;;;17.49;100.00;99775.44;5045884;28;20049;-52
2021/08/27 03:14:34;;;;;;;27.40;16.75;;;;;;;17.49;100.00;99772.81;5015066;28;20440;-52
2021/08/27 03:17:04;;;;;;;30.80;17.95;;;;;;;17.47;100.00;99769.44;5039502;28;20373;-60
2021/08/27 03:19:51;;;;;;;32.70;19.02;;;;;;;17.46;100.00;99768.59;5035822;28;20041;-52
2021/08/27 03:22:21;;;;;;;26.42;17.90;;;;;;;17.46;100.00;99775.63;5048068;28;20041;-48
2021/08/27 03:24:54;;;;;;;30.50;19.02;;;;;;;17.45;100.00;99780.06;5031901;28;20122;-47
2021/08/27 03:27:25;;;;;;;27.67;17.98;;;;;;;17.44;100.00;99790.66;5030958;28;20064;-51
2021/08/27 03:29:52;;;;;;;;;;;;;;;17.45;100.00;99781.81;5030618;28;20041;-49
2021/08/27 03:32:18;;;;;;;28.27;18.27;;;;;;;17.43;100.00;99788.97;5030056;28;19924;-52
2021/08/27 03:34:45;;;;;;;27.25;18.92;;;;;;;17.40;100.00;99779.47;5042827;28;20120;-49
2021/08/27 03:37:11;;;;;;;26.80;18.63;;;;;;;17.43;100.00;99792.44;5036294;28;20591;-49
2021/08/27 03:39:38;;;;;;;29.63;19.35;;;;;;;17.43;100.00;99795.06;5036291;28;20049;-49
2021/08/27 03:42:05;;;;;;;30.55;19.58;;;;;;;17.45;100.00;99794.97;5031533;28;20147;-52
2021/08/27 03:44:32;;;;;;;28.73;20.77;;;;;;;17.40;100.00;99789.16;5031219;28;20052;-50
2021/08/27 03:46:58;;;;;;;34.92;22.10;;;;;;;17.47;100.00;99796.59;5030169;28;20136;-53
2021/08/27 03:49:24;;;;;;;29.67;20.23;;;;;;;17.38;100.00;99794.50;5030461;28;20079;-50
2021/08/27 03:51:51;;;;;;;31.40;21.58;;;;;;;17.47;100.00;99804.47;5031222;28;20049;-52
2021/08/27 03:54:18;;;;;;;37.15;23.25;;;;;;;17.46;100.00;99801.94;5031766;28;20045;-51
2021/08/27 03:56:45;;;;;;;36.03;22.60;;;;;;;17.34;100.00;99779.84;5029728;28;20048;-50
2021/08/27 03:59:12;;;;;;;35.42;23.50;;;;;;;17.47;100.00;99803.63;5031533;28;20111;-52
2021/08/27 04:01:38;;;;;;;39.17;23.38;;;;;;;17.46;100.00;99808.03;5034779;28;20068;-52
2021/08/27 04:04:05;;;;;;;37.50;23.65;;;;;;;17.45;100.00;99795.81;5030761;28;20034;-51
2021/08/27 04:06:31;;;;;;;34.38;23.52;;;;;;;17.43;100.00;99804.75;5030044;28;20037;-49
2021/08/27 04:08:56;;;;;;;42.80;26.02;;;;;;;17.44;100.00;99804.63;5031086;28;20428;-49
2021/08/27 04:11:22;;;;;;;41.67;25.83;;;;;;;17.38;100.00;99797.97;5032464;28;20048;-52
2021/08/27 04:13:48;;;;;;;36.42;24.35;;;;;;;17.48;100.00;99814.03;5039703;28;20041;-49
2021/08/27 04:16:14;;;;;;;43.00;25.30;;;;;;;17.50;100.00;99813.94;5047839;28;20036;-52
2021/08/27 04:18:40;;;;;;;39.83;24.73;;;;;;;17.53;100.00;99816.41;5032932;28;20072;-51
2021/08/27 04:21:06;;;;;;;37.00;25.45;;;;;;;17.56;100.00;99814.41;5031129;28;20420;-50
2021/08/27 04:23:31;;;;;;;37.63;24.50;;;;;;;17.61;100.00;99814.16;5030391;28;20049;-49
2021/08/27 04:25:57;;;;;;;40.95;26.92;;;;;;;17.65;100.00;99819.13;5030274;28;20046;-51
2021/08/27 04:28:23;;;;;;;39.55;25.95;;;;;;;17.71;100.00;99812.66;5031100;28;20524;-50
2021/08/27 04:30:49;;;;;;;42.15;26.33;;;;;;;17.76;100.00;99829.84;5031021;28;20045;-52
2021/08/27 04:33:15;;;;;;;40.63;25.80;;;;;;;17.81;100.00;99816.41;5029282;28;20064;-48
2021/08/27 04:35:41;;;;;;;37.28;26.38;;;;;;;17.85;100.00;99823.16;5030641;28;20480;-53
2021/08/27 04:38:09;;;;;;;38.35;26.23;;;;;;;17.91;100.00;99825.41;5031280;28;20072;-48
2021/08/27 04:40:35;;;;;;;39.15;26.65;;;;;;;17.96;100.00;99820.72;5060213;28;20083;-52
2021/08/27 04:43:01;;;;;;;42.30;28.85;;;;;;;18.02;100.00;99817.72;5036279;28;20048;-47
2021/08/27 04:45:26;;;;;;;41.90;27.27;;;;;;;18.01;100.00;99802.84;5032034;28;20432;-50
2021/08/27 04:47:52;;;;;;;40.13;27.02;;;;;;;18.17;100.00;99821.16;5048171;28;20110;-53
2021/08/27 04:50:18;;;;;;;42.97;28.73;;;;;;;18.27;100.00;99830.16;5049110;28;20041;-52
2021/08/27 04:52:44;;;;;;;43.55;28.13;;;;;;;18.37;100.00;99819.91;5032449;28;20044;-53
2021/08/27 04:55:10;;;;;;;44.28;28.50;;;;;;;18.45;100.00;99825.50;5038667;28;20044;-48
2021/08/27 04:57:40;;;;;;;43.15;28.85;;;;;;;18.51;100.00;99819.84;5034751;28;20508;-45
2021/08/27 05:00:08;;;;;;;44.83;29.00;;;;;;;18.61;99.12;99813.06;5050548;28;20075;-47
2021/08/27 05:02:35;;;;;;;42.92;29.70;;;;;;;18.66;98.42;99821.53;5040876;28;20048;-46
2021/08/27 05:05:01;;;;;;;52.97;34.83;;;;;;;18.74;97.97;99835.03;5028668;28;20145;-44
2021/08/27 05:07:27;;;;;;;45.53;32.22;;;;;;;18.76;97.01;99833.16;5030178;28;20045;-46
2021/08/27 05:09:53;;;;;;;50.05;31.88;;;;;;;18.77;96.74;99834.00;5030361;28;20512;-46
2021/08/27 05:12:18;;;;;;;45.80;32.20;;;;;;;18.77;96.73;99834.84;5029908;28;20508;-49
2021/08/27 05:14:44;;;;;;;47.63;32.13;;;;;;;18.81;96.29;99843.38;5064011;28;20509;-51
2021/08/27 05:17:10;;;;;;;51.58;34.17;;;;;;;18.83;95.06;99831.81;5043025;28;20102;-45
2021/08/27 05:19:35;;;;;;;50.30;33.63;;;;;;;18.92;94.23;99839.09;5050147;28;20504;-46
2021/08/27 05:22:01;;;;;;;50.28;33.85;;;;;;;18.96;92.93;99822.13;5048800;28;20095;-45
2021/08/27 05:24:27;;;;;;;51.92;33.05;;;;;;;19.15;91.67;99829.66;5039547;28;20040;-45
2021/08/27 05:26:54;;;;;;;50.50;33.50;;;;;;;19.26;90.48;99831.59;5029620;28;20517;-47
2021/08/27 05:29:20;;;;;;;51.65;35.22;;;;;;;19.28;88.88;99819.13;5028844;28;20045;-46
2021/08/27 05:31:46;;;;;;;55.15;33.47;;;;;;;19.45;88.62;99839.94;5030136;28;20626;-47
2021/08/27 05:34:12;;;;;;;51.28;35.03;;;;;;;19.58;87.75;99848.69;5030045;28;20052;-49
2021/08/27 05:36:38;;;;;;;49.15;34.38;;;;;;;19.73;85.86;99850.28;5030042;28;20041;-47
2021/08/27 05:39:04;;;;;;;48.58;33.92;;;;;;;19.87;84.30;99858.09;5037373;28;20076;-46
2021/08/27 05:41:29;;;;;;;52.90;35.03;;;;;;;19.91;82.55;99853.44;5045449;28;20051;-47
2021/08/27 05:43:55;;;;;;;48.10;34.42;;;;;;;19.98;82.06;99854.72;5048475;28;20037;-47
2021/08/27 05:46:21;;;;;;;56.65;37.30;;;;;;;20.08;81.73;99862.81;5040988;28;20041;-46
2021/08/27 05:48:47;;;;;;;54.80;35.90;;;;;;;20.12;81.47;99844.00;5029270;28;20056;-47
2021/08/27 05:51:13;;;;;;;50.25;34.65;;;;;;;20.13;81.25;99850.13;5037875;28;20402;-48
2021/08/27 05:53:38;;;;;;;50.70;34.92;;;;;;;20.16;81.08;99852.53;5032045;28;20132;-46
2021/08/27 05:56:04;;;;;;;53.40;35.05;;;;;;;20.21;79.83;99859.19;5028897;28;20128;-47
2021/08/27 05:58:30;;;;;;;46.95;33.55;;;;;;;20.28;79.36;99864.88;5028292;28;20041;-49
2021/08/27 06:00:56;;;;;;;49.78;35.17;;;;;;;20.39;78.63;99861.50;5035277;28;20415;-44
2021/08/27 06:03:22;;;;;;;50.67;34.72;;;;;;;20.51;77.86;99866.75;5049384;28;20036;-49
2021/08/27 06:05:48;;;;;;;52.63;33.75;;;;;;;20.53;77.49;99854.28;5044432;28;20044;-45
2021/08/27 06:08:14;;;;;;;50.13;32.50;;;;;;;20.61;76.76;99848.44;5034930;28;20073;-49
2021/08/27 06:10:39;;;;;;;50.13;32.92;;;;;;;20.83;76.29;99872.31;5029419;28;20080;-47
2021/08/27 06:13:05;;;;;;;48.28;33.70;;;;;;;20.81;75.41;99854.91;5034092;28;20437;-47
2021/08/27 06:15:31;;;;;;;48.10;31.02;;;;;;;21.13;74.17;99869.22;5048856;28;20032;-46
2021/08/27 06:17:57;;;;;;;46.58;31.77;;;;;;;21.53;71.89;99867.06;5038926;28;20127;-53
2021/08/27 06:20:22;;;;;;;49.75;32.10;;;;;;;22.44;67.63;99873.13;5047654;28;20040;-50
2021/08/27 06:22:48;;;;;;;46.67;32.40;;;;;;;23.38;64.26;99875.94;5045957;28;20041;-48
2021/08/27 06:25:15;;;;;;;47.55;31.33;;;;;;;24.26;59.93;99860.38;5041657;28;20424;-49
2021/08/27 06:27:40;;;;;;;44.50;30.85;;;;;;;25.07;58.16;99879.72;5032955;28;20045;-48
2021/08/27 06:30:07;;;;;;;46.08;31.30;;;;;;;25.91;55.15;99881.53;5047734;28;20041;-51
2021/08/27 06:32:33;;;;;;;46.67;31.20;;;;;;;26.40;52.05;99882.22;5042480;28;20044;-47
2021/08/27 06:34:59;;;;;;;43.05;30.60;;;;;;;26.04;52.32;99890.06;5028793;28;20394;-46
2021/08/27 06:40:10;;;;;;;44.35;32.05;;;;;;;24.43;56.42;99882.81;5044696;28;20147;-51
2021/08/27 06:42:36;;;;;;;52.30;32.58;;;;;;;24.31;56.47;99883.88;5037818;28;20503;-45
2021/08/27 06:45:03;;;;;;;45.60;33.17;;;;;;;24.05;56.97;99880.81;5044147;28;20056;-47
2021/08/27 06:47:28;;;;;;;47.20;32.00;;;;;;;23.70;57.68;99865.28;5046888;28;20044;-45
2021/08/27 06:49:54;;;;;;;48.00;32.35;;;;;;;24.16;56.49;99871.91;5038161;28;20072;-46
2021/08/27 06:52:20;;;;;;;48.15;32.42;;;;;;;25.07;54.17;99877.88;5037032;28;20037;-47
2021/08/27 06:54:46;;;;;;;47.60;33.40;;;;;;;25.29;53.10;99874.09;4995361;28;20068;-52
2021/08/27 06:57:12;;;;;;;47.13;32.63;;;;;;;24.91;53.73;99880.28;5043669;28;20091;-50
2021/08/27 06:59:38;;;;;;;44.67;31.75;;;;;;;24.53;54.90;99880.19;5042852;28;20044;-49
2021/08/27 07:02:04;;;;;;;46.58;32.28;;;;;;;24.38;55.42;99879.72;5044161;28;20049;-49
2021/08/27 07:04:31;;;;;;;48.55;33.13;;;;;;;24.26;55.75;99897.59;5047487;28;20102;-58
2021/08/27 07:06:57;;;;;;;48.05;33.35;;;;;;;24.11;55.92;99890.91;5027493;28;20048;-58
2021/08/27 07:09:23;;;;;;;48.35;33.35;;;;;;;23.93;56.31;99884.53;5048265;28;20519;-58
2021/08/27 07:11:49;;;;;;;43.97;32.75;;;;;;;23.93;56.67;99889.84;5054170;28;20069;-58
2021/08/27 07:14:16;;;;;;;50.67;34.90;;;;;;;24.31;55.61;99876.75;5050987;28;20136;-56
2021/08/27 07:16:41;;;;;;;47.83;31.63;;;;;;;26.26;50.05;99880.88;5050302;28;20037;-50
2021/08/27 07:19:07;;;;;;;47.50;33.00;;;;;;;27.92;46.35;99883.78;5047023;28;20049;-48
2021/08/27 07:21:33;;;;;;;46.28;33.92;;;;;;;29.31;43.59;99886.75;5042007;28;20132;-44
2021/08/27 07:23:59;;;;;;;45.40;34.78;;;;;;;30.46;41.21;99890.88;5048634;28;20060;-47
2021/08/27 07:26:24;;;;;;;45.17;33.95;;;;;;;31.34;39.66;99889.50;5048156;28;20037;-49
2021/08/27 07:28:50;;;;;;;47.03;34.85;;;;;;;31.97;37.91;99880.19;5044650;28;20095;-48
2021/08/27 07:31:16;;;;;;;49.97;36.38;;;;;;;32.53;37.03;99883.22;5043817;28;20033;-52
2021/08/27 07:33:41;;;;;;;45.33;32.70;;;;;;;32.16;37.35;99890.41;5049576;28;20420;-58
2021/08/27 07:36:07;;;;;;;45.58;35.55;;;;;;;31.55;38.33;99889.66;5039084;28;20044;-50
2021/08/27 07:38:34;;;;;;;43.53;34.25;;;;;;;32.44;36.54;99893.25;5035839;28;20053;-48
2021/08/27 07:41:00;;;;;;;43.25;33.15;;;;;;;33.51;34.26;99891.50;5046317;28;20045;-48
2021/08/27 07:43:26;;;;;;;46.83;32.83;;;;;;;34.11;33.32;99899.00;5037615;28;20142;-51
2021/08/27 07:45:57;;;;;;;42.13;32.38;;;;;;;33.94;33.40;99901.19;5059254;28;20377;-47
2021/08/27 07:48:26;;;;;;;42.72;33.00;;;;;;;32.67;35.31;99888.59;5040176;28;20187;-50
2021/08/27 07:50:52;;;;;;;42.22;33.08;;;;;;;31.79;36.60;99888.59;5030000;28;20041;-53
2021/08/27 07:53:18;;;;;;;43.50;33.05;;;;;;;32.80;35.03;99901.38;5047100;28;20106;-47
2021/08/27 07:55:45;;;;;;;43.17;35.53;;;;;;;34.16;32.80;99901.09;5028859;28;20033;-50
2021/08/27 07:58:10;;;;;;;51.33;35.53;;;;;;;35.22;31.36;99895.94;5052235;28;20139;-48
2021/08/27 08:00:36;;;;;;;42.55;32.80;;;;;;;35.96;30.25;99909.22;5048883;28;20093;-52
2021/08/27 08:03:02;;;;;;;38.72;32.58;;;;;;;36.40;28.98;99892.25;5050302;28;20068;-53
2021/08/27 08:05:28;;;;;;;45.67;31.92;;;;;;;36.82;28.98;99901.66;5048414;28;20699;-54
2021/08/27 08:07:53;;;;;;;42.80;32.83;;;;;;;37.12;28.38;99906.50;5048323;28;20130;-54
2021/08/27 08:10:20;;;;;;;36.28;30.05;;;;;;;37.22;28.10;99907.66;5046162;28;20529;-52
2021/08/27 08:12:46;;;;;;;38.88;31.25;;;;;;;37.36;27.66;99904.88;5052532;28;20059;-52
2021/08/27 08:15:12;;;;;;;37.90;30.20;;;;;;;37.37;27.55;99899.22;5053574;28;20123;-51
2021/08/27 08:17:37;;;;;;;41.63;32.83;;;;;;;37.48;27.34;99901.19;5050912;28;20128;-52
2021/08/27 08:20:05;;;;;;;33.55;28.98;;;;;;;37.51;27.23;99894.50;5049216;28;20527;-54
2021/08/27 08:22:30;;;;;;;38.58;30.05;;;;;;;37.36;27.38;99903.00;5050837;28;20501;-55
2021/08/27 08:24:56;;;;;;;35.03;29.02;;;;;;;37.34;27.12;99899.66;5050099;28;20055;-52
2021/08/27 08:27:23;;;;;;;41.50;29.77;;;;;;;37.34;27.19;99892.34;5047147;28;20183;-52
2021/08/27 08:29:48;;;;;;;37.75;28.30;;;;;;;37.05;27.66;99897.56;5049210;28;20594;-53
2021/08/27 08:32:14;;;;;;;34.60;27.75;;;;;;;36.74;27.85;99899.22;5050647;28;20128;-52
2021/08/27 08:34:40;;;;;;;33.33;27.38;;;;;;;36.66;28.15;99893.19;5050292;28;20101;-50
2021/08/27 08:37:07;;;;;;;33.47;27.00;;;;;;;36.38;28.48;99890.78;5045876;28;20036;-60
2021/08/27 08:39:36;;;;;;;31.75;26.83;;;;;;;36.75;27.76;99895.44;5041614;28;20064;-60
2021/08/27 08:42:02;;;;;;;29.70;25.35;;;;;;;37.45;26.91;99884.53;5047110;28;20040;-62
2021/08/27 08:44:28;;;;;;;33.15;26.20;;;;;;;37.94;26.03;99897.25;5046934;28;20041;-59
2021/08/27 08:46:54;;;;;;;27.60;24.58;;;;;;;37.47;26.25;99894.13;5044254;28;20045;-59
2021/08/27 08:49:28;;;;;;;29.83;23.45;;;;;;;37.62;25.73;99891.94;5053036;28;20474;-46
2021/08/27 08:51:54;;;;;;;29.33;23.50;;;;;;;37.39;26.32;99893.56;5068831;28;20051;-52
2021/08/27 08:54:20;;;;;;;36.63;25.00;;;;;;;37.11;26.86;99886.66;5059062;28;20037;-47
2021/08/27 08:56:47;;;;;;;33.00;23.60;;;;;;;36.58;27.45;99885.28;5047620;28;20191;-50
2021/08/27 08:59:14;;;;;;;26.25;21.60;;;;;;;36.26;28.28;99882.50;5064229;28;20751;-50
2021/08/27 09:01:39;;;;;;;34.30;24.73;;;;;;;36.85;27.59;99879.53;5067994;28;20036;-51
2021/08/27 09:04:05;;;;;;;24.40;21.75;;;;;;;37.40;26.72;99890.63;5069043;28;20036;-48
2021/08/27 09:06:31;;;;;;;26.00;21.35;;;;;;;37.50;26.31;99888.25;5070350;28;20488;-51
2021/08/27 09:09:00;;;;;;;24.17;21.60;;;;;;;38.01;25.71;99890.72;5062157;28;20682;-50
2021/08/27 09:11:27;;;;;;;32.35;22.25;;;;;;;37.92;25.78;99886.63;5066911;28;20058;-51
2021/08/27 09:13:55;;;;;;;33.55;24.27;;;;;;;37.43;26.58;99883.91;5030360;28;20041;-51
2021/08/27 09:16:23;;;;;;;23.83;21.25;;;;;;;37.44;26.70;99880.16;5063960;28;20076;-49
2021/08/27 09:18:51;;;;;;;28.95;21.13;;;;;;;37.08;26.93;99887.13;5048101;28;20040;-49
2021/08/27 09:21:50;;;;;;;28.92;23.02;;;;;;;36.91;27.22;99877.81;5056068;28;20062;-47
2021/08/27 09:24:25;;;;;;;26.95;20.77;;;;;;;36.74;27.68;99885.66;5057909;28;20037;-52
2021/08/27 09:27:01;;;;;;;22.65;20.08;;;;;;;37.33;26.54;99881.72;5030172;28;20053;-47
2021/08/27 09:29:43;;;;;;;23.90;18.25;;;;;;;37.43;25.93;99867.63;5060438;28;20135;-47
2021/08/27 09:32:32;;;;;;;23.60;18.60;;;;;;;38.02;25.13;99877.97;5068357;28;20040;-48
2021/08/27 09:35:02;;;;;;;26.08;20.80;;;;;;;39.10;24.01;99878.06;5068880;28;20471;-49
2021/08/27 09:37:54;;;;;;;24.17;18.75;;;;;;;39.85;23.00;99881.81;5065233;28;20049;-52
2021/08/27 09:40:30;;;;;;;29.48;23.67;;;;;;;40.27;23.16;99879.75;5055281;28;20044;-48
2021/08/27 09:42:57;;;;;;;23.77;18.45;;;;;;;40.52;22.66;99880.25;5033861;28;20037;-49
2021/08/27 09:45:37;;;;;;;21.25;17.67;;;;;;;40.62;22.49;99872.31;5052652;28;20052;-49
2021/08/27 09:48:09;;;;;;;19.67;16.88;;;;;;;40.86;22.36;99878.50;5063665;28;20069;-48
2021/08/27 09:50:37;;;;;;;19.75;17.60;;;;;;;41.14;21.88;99876.81;5062455;28;20105;-52
2021/08/27 09:53:04;;;;;;;18.27;16.30;;;;;;;41.32;21.43;99871.09;5068490;28;20423;-50
2021/08/27 09:55:31;;;;;;;19.15;16.90;;;;;;;41.39;21.43;99849.94;5069758;28;20428;-51
2021/08/27 09:58:05;;;;;;;19.73;15.63;;;;;;;41.76;20.95;99861.16;5067073;28;20044;-49
2021/08/27 10:00:33;;;;;;;21.75;16.50;;;;;;;41.95;20.70;99862.53;5060948;28;20098;-50
2021/08/27 10:03:02;;;;;;;18.13;15.35;;;;;;;41.98;20.60;99848.34;5068490;28;20182;-51
2021/08/27 10:05:38;;;;;;;16.48;14.70;;;;;;;42.24;20.13;99849.53;5068160;28;20135;-49
2021/08/27 10:08:19;;;;;;;19.58;15.48;;;;;;;42.38;19.98;99855.44;5064695;28;20044;-49
2021/08/27 10:10:45;;;;;;;16.17;14.57;;;;;;;42.66;19.70;99863.38;5068290;28;20037;-51
2021/08/27 10:13:11;;;;;;;15.20;13.40;;;;;;;42.92;19.47;99856.31;5056193;28;20052;-49
2021/08/27 10:15:38;;;;;;;13.68;12.20;;;;;;;42.97;18.93;99856.34;5057287;28;20064;-51
2021/08/27 10:18:08;;;;;;;16.25;14.05;;;;;;;43.04;19.02;99846.81;5069595;28;20044;-51
2021/08/27 10:20:38;;;;;;;14.68;13.07;;;;;;;43.26;19.02;99849.50;5066407;28;20047;-50
2021/08/27 10:23:07;;;;;;;19.88;12.90;;;;;;;43.33;18.40;99855.59;5063111;28;20400;-51
2021/08/27 10:25:32;;;;;;;14.57;12.73;;;;;;;43.29;18.30;99850.91;5058531;28;20509;-47
2021/08/27 10:27:58;;;;;;;14.30;12.77;;;;;;;43.32;18.44;99856.66;5048351;28;20043;-50
2021/08/27 10:30:56;;;;;;;15.50;13.90;;;;;;;43.44;18.21;99856.47;5049611;28;20033;-49
2021/08/27 10:33:41;;;;;;;14.02;12.48;;;;;;;43.20;18.37;99858.75;5046815;28;20037;-51
2021/08/27 10:36:21;;;;;;;17.65;12.27;;;;;;;42.96;18.21;99857.44;5048991;28;20131;-49
2021/08/27 10:38:51;;;;;;;13.63;12.15;;;;;;;43.00;17.89;99848.44;5049900;28;20040;-48
2021/08/27 10:41:28;;;;;;;13.75;11.77;;;;;;;43.18;18.37;99844.53;5055278;28;20036;-47
2021/08/27 10:44:15;;;;;;;18.00;12.20;;;;;;;43.17;17.76;99853.00;5046824;28;20524;-50
2021/08/27 10:46:44;;;;;;;13.63;12.10;;;;;;;43.07;17.93;99857.28;5065903;28;20070;-49
2021/08/27 10:49:16;;;;;;;13.40;11.30;;;;;;;42.95;17.86;99848.41;5071382;28;20481;-51
2021/08/27 10:51:44;;;;;;;14.07;11.80;;;;;;;42.62;18.16;99846.69;5072972;28;20499;-51
2021/08/27 10:54:11;;;;;;;12.30;10.43;;;;;;;42.59;18.52;99838.16;5062529;28;20446;-50
2021/08/27 10:56:44;;;;;;;;;;;;;;;42.56;18.39;99850.44;5052733;28;20040;-49
2021/08/27 10:59:12;;;;;;;13.25;10.82;;;;;;;42.42;18.41;99840.16;5064003;28;20018;-48
2021/08/27 11:01:41;;;;;;;12.45;10.82;;;;;;;42.35;18.12;99842.25;5048037;28;20102;-53
2021/08/27 11:04:16;;;;;;;13.32;11.52;;;;;;;42.27;17.84;99838.91;5033415;28;20119;-51
2021/08/27 11:07:04;;;;;;;13.77;10.27;;;;;;;42.31;17.89;99835.66;5032573;28;20045;-50
2021/08/27 11:09:34;;;;;;;13.02;9.80;;;;;;;42.44;18.28;99838.03;5051339;28;20457;-49
2021/08/27 11:12:09;;;;;;;11.80;10.23;;;;;;;42.35;17.83;99845.00;5051931;28;20056;-51
2021/08/27 11:14:36;;;;;;;13.10;10.20;;;;;;;42.14;18.04;99835.72;5050303;28;20041;-48
2021/08/27 11:17:05;;;;;;;13.57;9.77;;;;;;;41.99;18.18;99841.81;5070980;28;20396;-50
2021/08/27 11:19:54;;;;;;;12.07;9.27;;;;;;;41.79;18.14;99825.97;5066033;28;20028;-51
2021/08/27 11:22:23;;;;;;;13.30;10.27;;;;;;;41.63;17.97;99839.66;5069260;28;20053;-51